Time,TemperatureF,DewpointF,PressureIn,WindDirection,WindDirectionDegrees,WindSpeedMPH,WindSpeedGustMPH,Humidity,HourlyPrecipIn,Conditions,Clouds,dailyrainin,SoftwareType,DateUTC
2013-10-25 00:01:00,34.2,31.0,27.42,South,180,1.2,1.2,88,0.00,CLR,,0.00,WeatherDisplay:10.37,2013-10-25 05:01:00,
2013-10-25 00:06:00,34.2,31.0,27.42,South,180,1.2,0.0,88,0.00,CLR,,0.00,WeatherDisplay:10.37,2013-10-25 05:06:00,
2013-10-25 00:11:00,34.2,31.0,27.42,South,180,0.0,0.0,88,0.00,CLR,,0.00,WeatherDisplay:10.37,2013-10-25 05:11:00,
2013-10-25 00:16:00,34.2,31.0,27.42,East,90,1.2,1.2,88,0.00,CLR,,0.00,WeatherDisplay:10.37,2013-10-25 05:16:00,
2013-10-25 00:21:00,34.2,31.0,27.42,South,180,2.3,2.3,88,0.00,CLR,,0.00,WeatherDisplay:10.37,2013-10-25 05:21:00,
2013-10-25 00:26:00,34.0,30.8,27.42,SW,225,1.2,1.2,88,0.00,CLR,,0.00,WeatherDisplay:10.37,2013-10-25 05:26:00,
2013-10-25 00:31:00,33.8,30.6,27.42,South,180,1.2,0.0,88,0.00,CLR,,0.00,WeatherDisplay:10.37,2013-10-25 05:31:00,
2013-10-25 00:36:00,33.6,30.7,27.42,South,180,1.2,1.2,89,0.00,CLR,,0.00,WeatherDisplay:10.37,2013-10-25 05:36:00,
2013-10-25 00:41:00,33.6,30.7,27.42,South,180,0.0,0.0,89,0.00,CLR,,0.00,WeatherDisplay:10.37,2013-10-25 05:41:00,
2013-10-25 00:46:00,33.4,30.5,27.42,South,180,1.2,1.2,89,0.00,CLR,,0.00,WeatherDisplay:10.37,2013-10-25 05:46:00,
2013-10-25 00:51:00,33.4,30.5,27.42,South,180,1.2,0.0,89,0.00,CLR,,0.00,WeatherDisplay:10.37,2013-10-25 05:51:00,
2013-10-25 00:56:00,33.4,30.5,27.42,South,180,0.0,0.0,89,0.00,CLR,,0.00,WeatherDisplay:10.37,2013-10-25 05:56:00,
2013-10-25 01:01:00,33.3,30.4,27.41,South,180,1.2,0.0,89,0.00,CLR,,0.00,WeatherDisplay:10.37,2013-10-25 06:01:00,
2013-10-25 01:06:00,33.3,30.4,27.41,South,180,1.2,0.0,89,0.00,CLR,,0.00,WeatherDisplay:10.37,2013-10-25 06:06:00,
2013-10-25 01:11:00,33.1,30.2,27.41,South,180,1.2,0.0,89,0.00,CLR,,0.00,WeatherDisplay:10.37,2013-10-25 06:11:00,
2013-10-25 01:16:00,32.9,29.7,27.41,South,180,1.2,0.0,88,0.00,CLR,,0.00,WeatherDisplay:10.37,2013-10-25 06:16:00,
2013-10-25 01:21:00,32.7,29.6,27.41,South,180,1.2,0.0,88,0.00,CLR,,0.00,WeatherDisplay:10.37,2013-10-25 06:21:00,
2013-10-25 01:26:00,32.7,29.6,27.41,South,180,0.0,0.0,88,0.00,CLR,,0.00,WeatherDisplay:10.37,2013-10-25 06:26:00,
2013-10-25 01:31:00,32.5,29.4,27.41,South,180,0.0,0.0,88,0.00,CLR,,0.00,WeatherDisplay:10.37,2013-10-25 06:31:00,
2013-10-25 01:36:00,32.5,29.4,27.41,South,180,0.0,0.0,88,0.00,CLR,,0.00,WeatherDisplay:10.37,2013-10-25 06:36:00,
2013-10-25 01:41:00,32.5,29.4,27.41,South,180,0.0,0.0,88,0.00,CLR,,0.00,WeatherDisplay:10.37,2013-10-25 06:41:00,
2013-10-25 01:46:00,32.4,29.2,27.41,South,180,0.0,0.0,88,0.00,CLR,,0.00,WeatherDisplay:10.37,2013-10-25 06:46:00,
2013-10-25 01:51:00,32.5,29.4,27.41,South,180,0.0,0.7,88,0.00,CLR,,0.00,WeatherDisplay:10.37,2013-10-25 06:51:00,
2013-10-25 01:56:00,32.4,29.2,27.41,South,180,1.2,0.0,88,0.00,CLR,,0.00,WeatherDisplay:10.37,2013-10-25 06:56:00,
2013-10-25 02:02:00,32.4,29.2,27.41,South,180,1.2,1.2,88,0.00,CLR,,0.00,WeatherDisplay:10.37,2013-10-25 07:02:00,
2013-10-25 02:07:00,32.4,29.2,27.41,South,180,1.2,1.2,88,0.00,CLR,,0.00,WeatherDisplay:10.37,2013-10-25 07:07:00,
2013-10-25 02:12:00,32.2,29.0,27.41,South,180,1.2,1.2,88,0.00,CLR,,0.00,WeatherDisplay:10.37,2013-10-25 07:12:00,
2013-10-25 02:17:00,32.2,29.0,27.41,South,180,0.0,0.0,88,0.00,CLR,,0.00,WeatherDisplay:10.37,2013-10-25 07:17:00,
2013-10-25 02:22:00,32.2,29.0,27.41,South,180,1.2,0.0,88,0.00,CLR,,0.00,WeatherDisplay:10.37,2013-10-25 07:22:00,
2013-10-25 02:27:00,32.2,29.0,27.41,South,180,1.2,0.0,88,0.00,CLR,,0.00,WeatherDisplay:10.37,2013-10-25 07:27:00,
2013-10-25 02:32:00,32.0,28.8,27.41,East,90,0.0,0.0,88,0.00,CLR,,0.00,WeatherDisplay:10.37,2013-10-25 07:32:00,
2013-10-25 02:37:00,32.0,28.8,27.41,East,90,0.0,0.0,88,0.00,CLR,,0.00,WeatherDisplay:10.37,2013-10-25 07:37:00,
2013-10-25 02:42:00,31.8,28.9,27.41,East,90,0.0,0.0,89,0.00,CLR,,0.00,WeatherDisplay:10.37,2013-10-25 07:42:00,
2013-10-25 02:47:00,31.8,28.9,27.41,East,90,1.2,0.0,89,0.00,CLR,,0.00,WeatherDisplay:10.37,2013-10-25 07:47:00,
2013-10-25 02:52:00,31.8,28.9,27.41,East,90,1.2,0.0,89,0.00,CLR,,0.00,WeatherDisplay:10.37,2013-10-25 07:52:00,
2013-10-25 02:57:00,31.8,28.9,27.41,East,90,0.0,0.0,89,0.00,CLR,,0.00,WeatherDisplay:10.37,2013-10-25 07:57:00,
2013-10-25 03:02:00,31.8,28.9,27.41,East,90,0.0,0.0,89,0.00,CLR,,0.00,WeatherDisplay:10.37,2013-10-25 08:02:00,
2013-10-25 03:07:00,31.8,28.9,27.41,East,90,0.0,0.0,89,0.00,CLR,,0.00,WeatherDisplay:10.37,2013-10-25 08:07:00,
2013-10-25 03:12:00,31.6,28.8,27.41,South,180,2.3,2.3,89,0.00,CLR,,0.00,WeatherDisplay:10.37,2013-10-25 08:12:00,
2013-10-25 03:17:00,31.5,28.6,27.41,SE,135,1.2,1.2,89,0.00,CLR,,0.00,WeatherDisplay:10.37,2013-10-25 08:17:00,
2013-10-25 03:22:00,31.3,28.4,27.41,South,180,1.2,0.0,89,0.00,CLR,,0.00,WeatherDisplay:10.37,2013-10-25 08:22:00,
2013-10-25 03:27:00,31.1,28.2,27.41,South,180,0.0,0.0,89,0.00,CLR,,0.00,WeatherDisplay:10.37,2013-10-25 08:27:00,
2013-10-25 03:32:00,31.3,28.1,27.40,South,180,0.0,0.0,88,0.00,CLR,,0.00,WeatherDisplay:10.37,2013-10-25 08:32:00,
2013-10-25 03:37:00,31.3,28.1,27.40,East,90,1.2,0.0,88,0.00,CLR,,0.00,WeatherDisplay:10.37,2013-10-25 08:37:00,
2013-10-25 03:42:00,31.3,28.1,27.40,East,90,1.2,0.0,88,0.00,CLR,,0.00,WeatherDisplay:10.37,2013-10-25 08:42:00,
2013-10-25 03:47:00,31.3,28.1,27.40,East,90,1.2,0.0,88,0.00,CLR,,0.00,WeatherDisplay:10.37,2013-10-25 08:47:00,
2013-10-25 03:52:00,31.5,28.6,27.40,East,90,1.2,0.0,89,0.00,CLR,,0.00,WeatherDisplay:10.37,2013-10-25 08:52:00,
2013-10-25 03:57:00,31.3,28.4,27.40,SE,135,1.2,0.0,89,0.00,CLR,,0.00,WeatherDisplay:10.37,2013-10-25 08:57:00,
2013-10-25 04:02:00,31.3,28.4,27.40,East,90,1.2,0.0,89,0.00,CLR,,0.00,WeatherDisplay:10.37,2013-10-25 09:02:00,
2013-10-25 04:07:00,31.3,28.4,27.40,East,90,1.2,0.0,89,0.00,CLR,,0.00,WeatherDisplay:10.37,2013-10-25 09:07:00,
2013-10-25 04:12:00,31.1,28.2,27.40,East,90,1.2,0.0,89,0.00,CLR,,0.00,WeatherDisplay:10.37,2013-10-25 09:12:00,
2013-10-25 04:17:00,31.1,28.2,27.40,East,90,1.2,0.0,89,0.00,CLR,,0.00,WeatherDisplay:10.37,2013-10-25 09:17:00,
2013-10-25 04:22:00,31.1,28.5,27.40,NE,45,1.2,0.0,90,0.00,CLR,,0.00,WeatherDisplay:10.37,2013-10-25 09:22:00,
2013-10-25 04:27:00,30.9,28.3,27.40,East,90,1.2,0.0,90,0.00,CLR,,0.00,WeatherDisplay:10.37,2013-10-25 09:27:00,
2013-10-25 04:32:00,30.9,28.3,27.40,East,90,0.0,0.0,90,0.00,CLR,,0.00,WeatherDisplay:10.37,2013-10-25 09:32:00,
2013-10-25 04:37:00,30.7,28.2,27.39,East,90,0.0,0.0,90,0.00,CLR,,0.00,WeatherDisplay:10.37,2013-10-25 09:37:00,
2013-10-25 04:42:00,30.7,28.2,27.39,East,90,0.0,0.0,90,0.00,CLR,,0.00,WeatherDisplay:10.37,2013-10-25 09:42:00,
2013-10-25 04:47:00,30.6,28.0,27.39,North,0,1.2,0.0,90,0.00,CLR,,0.00,WeatherDisplay:10.37,2013-10-25 09:47:00,
2013-10-25 04:52:00,30.6,28.0,27.39,SE,135,0.0,0.0,90,0.00,CLR,,0.00,WeatherDisplay:10.37,2013-10-25 09:52:00,
2013-10-25 04:57:00,30.6,28.0,27.39,SE,135,1.2,1.2,90,0.00,CLR,,0.00,WeatherDisplay:10.37,2013-10-25 09:57:00,
2013-10-25 05:02:00,30.6,28.0,27.39,East,90,1.2,0.0,90,0.00,CLR,,0.00,WeatherDisplay:10.37,2013-10-25 10:02:00,
2013-10-25 05:07:00,30.7,28.4,27.39,East,90,1.2,0.0,91,0.00,CLR,,0.00,WeatherDisplay:10.37,2013-10-25 10:07:00,
2013-10-25 05:12:00,30.7,28.4,27.39,East,90,1.2,0.0,91,0.00,CLR,,0.00,WeatherDisplay:10.37,2013-10-25 10:12:00,
2013-10-25 05:17:00,30.7,28.4,27.39,East,90,1.2,0.0,91,0.00,CLR,,0.00,WeatherDisplay:10.37,2013-10-25 10:17:00,
2013-10-25 05:22:00,30.7,28.4,27.39,East,90,1.2,0.0,91,0.00,CLR,,0.00,WeatherDisplay:10.37,2013-10-25 10:22:00,
2013-10-25 05:27:00,30.6,28.2,27.39,East,90,0.0,0.0,91,0.00,CLR,,0.00,WeatherDisplay:10.37,2013-10-25 10:27:00,
2013-10-25 05:32:00,30.6,28.2,27.39,East,90,1.2,0.0,91,0.00,CLR,,0.00,WeatherDisplay:10.37,2013-10-25 10:32:00,
2013-10-25 05:37:00,30.6,28.2,27.39,East,90,0.0,0.0,91,0.00,CLR,,0.00,WeatherDisplay:10.37,2013-10-25 10:37:00,
2013-10-25 05:42:00,30.4,28.1,27.38,North,0,1.2,0.0,91,0.00,CLR,,0.00,WeatherDisplay:10.37,2013-10-25 10:42:00,
2013-10-25 05:47:00,30.4,28.1,27.38,North,0,1.2,1.2,91,0.00,CLR,,0.00,WeatherDisplay:10.37,2013-10-25 10:47:00,
2013-10-25 05:52:00,30.4,28.1,27.38,North,0,1.2,0.0,91,0.00,CLR,,0.00,WeatherDisplay:10.37,2013-10-25 10:52:00,
2013-10-25 05:57:00,30.6,28.5,27.39,North,0,0.0,0.7,92,0.00,CLR,,0.00,WeatherDisplay:10.37,2013-10-25 10:57:00,
2013-10-25 06:02:00,30.4,28.3,27.38,North,0,1.2,0.0,92,0.00,CLR,,0.00,WeatherDisplay:10.37,2013-10-25 11:02:00,
2013-10-25 06:07:00,30.2,28.2,27.39,South,180,1.2,0.0,92,0.00,CLR,,0.00,WeatherDisplay:10.37,2013-10-25 11:07:00,
2013-10-25 06:12:00,29.8,28.1,27.39,NW,315,1.2,0.0,93,0.00,CLR,,0.00,WeatherDisplay:10.37,2013-10-25 11:12:00,
2013-10-25 06:17:00,29.7,27.6,27.39,SW,225,1.2,1.2,92,0.00,CLR,,0.00,WeatherDisplay:10.37,2013-10-25 11:17:00,
2013-10-25 06:22:00,29.5,27.4,27.38,SE,135,1.2,0.0,92,0.00,CLR,,0.00,WeatherDisplay:10.37,2013-10-25 11:22:00,
2013-10-25 06:27:00,29.5,27.4,27.38,SW,225,1.2,0.0,92,0.00,CLR,,0.00,WeatherDisplay:10.37,2013-10-25 11:27:00,
2013-10-25 06:32:00,29.3,27.3,27.38,South,180,1.2,0.0,92,0.00,CLR,,0.00,WeatherDisplay:10.37,2013-10-25 11:32:00,
2013-10-25 06:37:00,29.3,27.3,27.38,SW,225,1.2,1.2,92,0.00,CLR,,0.00,WeatherDisplay:10.37,2013-10-25 11:37:00,
2013-10-25 06:42:00,29.5,27.4,27.38,SW,225,2.3,0.0,92,0.00,CLR,,0.00,WeatherDisplay:10.37,2013-10-25 11:42:00,
2013-10-25 06:47:00,29.7,27.6,27.38,North,0,1.2,0.0,92,0.00,CLR,,0.00,WeatherDisplay:10.37,2013-10-25 11:47:00,
2013-10-25 06:52:00,29.8,27.8,27.38,SE,135,1.2,0.0,92,0.00,CLR,,0.00,WeatherDisplay:10.37,2013-10-25 11:52:00,
2013-10-25 06:57:00,30.2,28.2,27.38,North,0,2.3,2.3,92,0.00,CLR,,0.00,WeatherDisplay:10.37,2013-10-25 11:57:00,
2013-10-25 07:02:00,30.2,28.2,27.38,North,0,1.2,1.2,92,0.00,CLR,,0.00,WeatherDisplay:10.37,2013-10-25 12:02:00,
2013-10-25 07:07:00,30.7,29.0,27.37,SE,135,1.2,1.2,93,0.00,CLR,,0.00,WeatherDisplay:10.37,2013-10-25 12:07:00,
2013-10-25 07:12:00,30.9,29.1,27.37,South,180,1.2,0.0,93,0.00,CLR,,0.00,WeatherDisplay:10.37,2013-10-25 12:12:00,
2013-10-25 07:17:00,31.1,29.6,27.37,NE,45,1.2,0.0,94,0.00,CLR,,0.00,WeatherDisplay:10.37,2013-10-25 12:17:00,
2013-10-25 07:23:00,31.1,29.6,27.36,NE,45,1.2,0.0,94,0.00,CLR,,0.00,WeatherDisplay:10.37,2013-10-25 12:23:00,
2013-10-25 07:28:00,31.1,29.6,27.36,NE,45,1.2,0.0,94,0.00,CLR,,0.00,WeatherDisplay:10.37,2013-10-25 12:28:00,
2013-10-25 07:33:00,31.1,29.6,27.36,NE,45,1.2,0.0,94,0.00,CLR,,0.00,WeatherDisplay:10.37,2013-10-25 12:33:00,
2013-10-25 07:38:00,31.3,29.8,27.36,North,0,2.3,2.3,94,0.00,CLR,,0.00,WeatherDisplay:10.37,2013-10-25 12:38:00,
2013-10-25 07:43:00,31.5,29.9,27.36,South,180,1.2,0.0,94,0.00,CLR,,0.00,WeatherDisplay:10.37,2013-10-25 12:43:00,
2013-10-25 07:48:00,31.6,30.1,27.36,SE,135,2.3,2.3,94,0.00,CLR,,0.00,WeatherDisplay:10.37,2013-10-25 12:48:00,
2013-10-25 07:53:00,31.6,30.4,27.36,NE,45,1.2,0.0,95,0.00,CLR,,0.00,WeatherDisplay:10.37,2013-10-25 12:53:00,
2013-10-25 07:58:00,31.6,30.4,27.36,NE,45,1.2,0.0,95,0.00,CLR,,0.00,WeatherDisplay:10.37,2013-10-25 12:58:00,
2013-10-25 08:03:00,31.6,30.4,27.35,NE,45,0.0,0.0,95,0.00,CLR,,0.00,WeatherDisplay:10.37,2013-10-25 13:03:00,
2013-10-25 08:08:00,31.6,30.4,27.35,NE,45,1.2,0.0,95,0.00,CLR,,0.00,WeatherDisplay:10.37,2013-10-25 13:08:00,
2013-10-25 08:13:00,31.6,30.4,27.35,East,90,1.2,0.0,95,0.00,CLR,,0.00,WeatherDisplay:10.37,2013-10-25 13:13:00,
2013-10-25 08:18:00,31.5,30.2,27.35,East,90,0.0,0.0,95,0.00,CLR,,0.00,WeatherDisplay:10.37,2013-10-25 13:18:00,
2013-10-25 08:23:00,31.6,30.4,27.35,East,90,1.2,0.0,95,0.00,CLR,,0.00,WeatherDisplay:10.37,2013-10-25 13:23:00,
2013-10-25 08:28:00,31.6,30.4,27.35,East,90,1.2,0.0,95,0.00,CLR,,0.00,WeatherDisplay:10.37,2013-10-25 13:28:00,
2013-10-25 08:33:00,31.6,30.1,27.35,East,90,1.2,0.0,94,0.00,CLR,,0.00,WeatherDisplay:10.37,2013-10-25 13:33:00,
2013-10-25 08:38:00,31.6,30.1,27.35,East,90,1.2,0.0,94,0.00,CLR,,0.00,WeatherDisplay:10.37,2013-10-25 13:38:00,
2013-10-25 08:43:00,31.6,30.1,27.35,NE,45,1.2,0.0,94,0.00,CLR,,0.00,WeatherDisplay:10.37,2013-10-25 13:43:00,
2013-10-25 08:48:00,31.8,30.3,27.36,NE,45,1.2,0.0,94,0.00,CLR,,0.00,WeatherDisplay:10.37,2013-10-25 13:48:00,
2013-10-25 08:53:00,32.0,30.2,27.35,East,90,1.2,0.0,93,0.00,CLR,,0.00,WeatherDisplay:10.37,2013-10-25 13:53:00,
2013-10-25 08:58:00,32.2,30.4,27.36,NE,45,1.2,0.0,93,0.00,CLR,,0.00,WeatherDisplay:10.37,2013-10-25 13:58:00,
2013-10-25 09:03:00,32.4,30.6,27.36,NE,45,0.0,0.0,93,0.00,CLR,,0.00,WeatherDisplay:10.37,2013-10-25 14:03:00,
2013-10-25 09:08:00,32.7,31.2,27.36,SE,135,1.2,0.0,94,0.00,CLR,,0.00,WeatherDisplay:10.37,2013-10-25 14:08:00,
2013-10-25 09:13:00,32.9,31.4,27.36,SE,135,1.2,0.0,94,0.00,CLR,,0.00,WeatherDisplay:10.37,2013-10-25 14:13:00,
2013-10-25 09:18:00,33.3,31.7,27.36,East,90,1.2,0.0,94,0.00,CLR,,0.00,WeatherDisplay:10.37,2013-10-25 14:18:00,
2013-10-25 09:23:00,33.8,32.0,27.36,East,90,1.2,0.0,93,0.00,CLR,,0.00,WeatherDisplay:10.37,2013-10-25 14:23:00,
2013-10-25 09:28:00,34.2,32.3,27.36,North,0,1.2,0.0,93,0.00,CLR,,0.00,WeatherDisplay:10.37,2013-10-25 14:28:00,
2013-10-25 09:33:00,34.5,32.7,27.36,East,90,1.2,1.2,93,0.00,CLR,,0.00,WeatherDisplay:10.37,2013-10-25 14:33:00,
2013-10-25 09:38:00,35.2,33.4,27.35,East,90,1.2,0.0,93,0.00,CLR,,0.00,WeatherDisplay:10.37,2013-10-25 14:38:00,
2013-10-25 09:43:00,36.0,34.1,27.36,South,180,1.2,1.2,93,0.00,CLR,,0.00,WeatherDisplay:10.37,2013-10-25 14:43:00,
2013-10-25 09:48:00,36.9,35.0,27.36,SSE,158,2.3,2.3,93,0.00,CLR,,0.00,WeatherDisplay:10.37,2013-10-25 14:48:00,
2013-10-25 09:53:00,37.8,37.0,27.36,SE,135,4.6,4.6,97,0.00,CLR,,0.00,WeatherDisplay:10.37,2013-10-25 14:53:00,
2013-10-25 09:58:00,39.4,38.3,27.35,South,180,3.5,4.5,96,0.00,CLR,,0.00,WeatherDisplay:10.37,2013-10-25 14:58:00,
2013-10-25 10:03:00,40.6,39.0,27.35,SW,225,10.4,10.4,94,0.00,CLR,,0.00,WeatherDisplay:10.37,2013-10-25 15:03:00,
2013-10-25 10:08:00,41.5,39.1,27.35,SE,135,8.1,8.1,91,0.00,CLR,,0.00,WeatherDisplay:10.37,2013-10-25 15:08:00,
2013-10-25 10:13:00,42.4,38.8,27.34,South,180,5.8,5.8,87,0.00,CLR,,0.00,WeatherDisplay:10.37,2013-10-25 15:13:00,
2013-10-25 10:18:00,43.5,38.7,27.34,SE,135,8.1,8.1,83,0.00,CLR,,0.00,WeatherDisplay:10.37,2013-10-25 15:18:00,
2013-10-25 10:23:00,44.6,38.5,27.34,South,180,8.1,8.1,79,0.00,CLR,,0.00,WeatherDisplay:10.37,2013-10-25 15:23:00,
2013-10-25 10:28:00,45.5,38.4,27.34,South,180,10.4,10.4,76,0.00,CLR,,0.00,WeatherDisplay:10.37,2013-10-25 15:28:00,
2013-10-25 10:33:00,46.4,37.9,27.34,South,180,10.4,10.4,72,0.00,CLR,,0.00,WeatherDisplay:10.37,2013-10-25 15:33:00,
2013-10-25 10:38:00,47.1,37.8,27.34,SE,135,9.2,9.2,70,0.00,CLR,,0.00,WeatherDisplay:10.37,2013-10-25 15:38:00,
2013-10-25 10:43:00,47.8,37.8,27.34,SE,135,12.7,12.7,68,0.00,CLR,,0.00,WeatherDisplay:10.37,2013-10-25 15:43:00,
2013-10-25 10:48:00,48.6,38.1,27.34,South,180,6.9,6.9,67,0.00,CLR,,0.00,WeatherDisplay:10.37,2013-10-25 15:48:00,
2013-10-25 10:53:00,49.8,38.9,27.34,SE,135,6.9,6.9,66,0.00,CLR,,0.00,WeatherDisplay:10.37,2013-10-25 15:53:00,
2013-10-25 10:58:00,50.7,39.4,27.33,South,180,8.1,8.1,65,0.00,CLR,,0.00,WeatherDisplay:10.37,2013-10-25 15:58:00,
2013-10-25 11:03:00,50.9,39.1,27.33,South,180,6.9,6.9,64,0.00,CLR,,0.00,WeatherDisplay:10.37,2013-10-25 16:03:00,
2013-10-25 11:08:00,51.6,39.0,27.33,SE,135,6.9,6.9,62,0.00,CLR,,0.00,WeatherDisplay:10.37,2013-10-25 16:08:00,
2013-10-25 11:13:00,52.2,38.7,27.32,South,180,9.2,9.2,60,0.00,CLR,,0.00,WeatherDisplay:10.37,2013-10-25 16:13:00,
2013-10-25 11:18:00,52.5,38.6,27.32,SE,135,9.2,9.2,59,0.00,CLR,,0.00,WeatherDisplay:10.37,2013-10-25 16:18:00,
2013-10-25 11:23:00,53.2,39.7,27.32,South,180,5.8,5.8,60,0.00,CLR,,0.00,WeatherDisplay:10.37,2013-10-25 16:23:00,
2013-10-25 11:28:00,54.1,38.8,27.32,South,180,8.1,8.1,56,0.00,CLR,,0.00,WeatherDisplay:10.37,2013-10-25 16:28:00,
2013-10-25 11:33:00,54.3,38.9,27.31,South,180,8.1,8.1,56,0.00,CLR,,0.00,WeatherDisplay:10.37,2013-10-25 16:33:00,
2013-10-25 11:38:00,54.7,39.3,27.31,South,180,12.7,12.7,56,0.00,CLR,,0.00,WeatherDisplay:10.37,2013-10-25 16:38:00,
2013-10-25 11:43:00,55.0,39.2,27.31,SW,225,5.8,5.8,55,0.00,CLR,,0.00,WeatherDisplay:10.37,2013-10-25 16:43:00,
2013-10-25 11:48:00,55.4,40.0,27.31,South,180,10.4,10.4,56,0.00,CLR,,0.00,WeatherDisplay:10.37,2013-10-25 16:48:00,
2013-10-25 11:53:00,55.8,39.8,27.31,South,180,8.1,8.1,55,0.00,CLR,,0.00,WeatherDisplay:10.37,2013-10-25 16:53:00,
2013-10-25 11:58:00,55.8,39.8,27.30,South,180,9.2,9.2,55,0.00,CLR,,0.00,WeatherDisplay:10.37,2013-10-25 16:58:00,
2013-10-25 12:03:00,55.9,40.0,27.30,South,180,5.8,5.8,55,0.00,CLR,,0.00,WeatherDisplay:10.37,2013-10-25 17:03:00,
2013-10-25 12:08:00,56.1,39.7,27.30,South,180,9.2,9.2,54,0.00,CLR,,0.00,WeatherDisplay:10.37,2013-10-25 17:08:00,
2013-10-25 12:13:00,56.5,40.5,27.29,SW,225,5.8,5.8,55,0.00,CLR,,0.00,WeatherDisplay:10.37,2013-10-25 17:13:00,
2013-10-25 12:18:00,57.0,40.5,27.29,SE,135,8.1,8.1,54,0.00,CLR,,0.00,WeatherDisplay:10.37,2013-10-25 17:18:00,
2013-10-25 12:23:00,57.6,41.0,27.29,SE,135,4.6,4.6,54,0.00,CLR,,0.00,WeatherDisplay:10.37,2013-10-25 17:23:00,
2013-10-25 12:28:00,57.9,39.9,27.29,South,180,12.7,12.7,51,0.00,CLR,,0.00,WeatherDisplay:10.37,2013-10-25 17:28:00,
2013-10-25 12:33:00,57.9,39.9,27.29,SE,135,6.9,6.9,51,0.00,CLR,,0.00,WeatherDisplay:10.37,2013-10-25 17:33:00,
2013-10-25 12:38:00,58.6,41.1,27.28,SW,225,5.8,5.8,52,0.00,CLR,,0.00,WeatherDisplay:10.37,2013-10-25 17:38:00,
2013-10-25 12:44:00,59.4,40.2,27.28,South,180,12.7,12.7,49,0.00,CLR,,0.00,WeatherDisplay:10.37,2013-10-25 17:44:00,
2013-10-25 12:49:00,59.2,40.0,27.28,SE,135,8.1,8.1,49,0.00,CLR,,0.00,WeatherDisplay:10.37,2013-10-25 17:49:00,
2013-10-25 12:54:00,59.2,40.0,27.28,South,180,9.2,9.2,49,0.00,CLR,,0.00,WeatherDisplay:10.37,2013-10-25 17:54:00,
2013-10-25 12:59:00,59.5,40.3,27.27,South,180,4.6,4.6,49,0.00,CLR,,0.00,WeatherDisplay:10.37,2013-10-25 17:59:00,
2013-10-25 13:04:00,59.5,40.3,27.27,South,180,4.6,4.6,49,0.00,CLR,,0.00,WeatherDisplay:10.37,2013-10-25 18:04:00,
2013-10-25 13:09:00,60.1,40.3,27.27,South,180,10.4,10.4,48,0.00,CLR,,0.00,WeatherDisplay:10.37,2013-10-25 18:09:00,
2013-10-25 13:14:00,59.7,40.0,27.26,SSW,202,11.5,11.5,48,0.00,CLR,,0.00,WeatherDisplay:10.37,2013-10-25 18:14:00,
2013-10-25 13:19:00,59.7,40.0,27.26,East,90,8.1,8.1,48,0.00,CLR,,0.00,WeatherDisplay:10.37,2013-10-25 18:19:00,
2013-10-25 13:24:00,60.1,40.3,27.26,South,180,5.8,5.8,48,0.00,CLR,,0.00,WeatherDisplay:10.37,2013-10-25 18:24:00,
2013-10-25 13:29:00,60.4,40.6,27.25,South,180,5.8,5.8,48,0.00,CLR,,0.00,WeatherDisplay:10.37,2013-10-25 18:29:00,
2013-10-25 13:34:00,60.8,39.9,27.25,South,180,5.8,5.8,46,0.00,CLR,,0.00,WeatherDisplay:10.37,2013-10-25 18:34:00,
2013-10-25 13:39:00,60.8,39.9,27.25,SW,225,5.8,5.8,46,0.00,CLR,,0.00,WeatherDisplay:10.37,2013-10-25 18:39:00,
2013-10-25 13:44:00,60.8,40.4,27.24,SE,135,5.8,5.8,47,0.00,CLR,,0.00,WeatherDisplay:10.37,2013-10-25 18:44:00,
2013-10-25 13:49:00,61.0,40.0,27.24,South,180,6.9,6.9,46,0.00,CLR,,0.00,WeatherDisplay:10.37,2013-10-25 18:49:00,
2013-10-25 13:54:00,60.8,39.9,27.24,SE,135,5.8,5.8,46,0.00,CLR,,0.00,WeatherDisplay:10.37,2013-10-25 18:54:00,
2013-10-25 13:59:00,60.8,39.9,27.23,SW,225,8.1,8.1,46,0.00,CLR,,0.00,WeatherDisplay:10.37,2013-10-25 18:59:00,
2013-10-25 14:04:00,60.8,39.9,27.24,South,180,5.8,5.8,46,0.00,CLR,,0.00,WeatherDisplay:10.37,2013-10-25 19:04:00,
2013-10-25 14:09:00,61.0,40.0,27.23,SE,135,3.5,6.0,46,0.00,CLR,,0.00,WeatherDisplay:10.37,2013-10-25 19:09:00,
2013-10-25 14:14:00,61.0,40.0,27.23,South,180,12.7,12.7,46,0.00,CLR,,0.00,WeatherDisplay:10.37,2013-10-25 19:14:00,
2013-10-25 14:19:00,61.0,40.0,27.22,South,180,4.6,4.6,46,0.00,CLR,,0.00,WeatherDisplay:10.37,2013-10-25 19:19:00,
2013-10-25 14:24:00,61.0,40.0,27.22,South,180,5.8,5.8,46,0.00,CLR,,0.00,WeatherDisplay:10.37,2013-10-25 19:24:00,
2013-10-25 14:29:00,61.0,40.0,27.21,South,180,5.8,7.6,46,0.00,CLR,,0.00,WeatherDisplay:10.37,2013-10-25 19:29:00,
2013-10-25 14:34:00,61.0,40.0,27.21,SE,135,6.9,6.9,46,0.00,CLR,,0.00,WeatherDisplay:10.37,2013-10-25 19:34:00,
2013-10-25 14:39:00,61.2,40.8,27.21,South,180,5.8,5.8,47,0.00,CLR,,0.00,WeatherDisplay:10.37,2013-10-25 19:39:00,
2013-10-25 14:44:00,61.5,40.5,27.20,SW,225,5.8,5.8,46,0.00,CLR,,0.00,WeatherDisplay:10.37,2013-10-25 19:44:00,
2013-10-25 14:49:00,61.5,40.5,27.20,SE,135,12.7,12.7,46,0.00,CLR,,0.00,WeatherDisplay:10.37,2013-10-25 19:49:00,
2013-10-25 14:54:00,61.5,40.5,27.20,SW,225,8.1,8.1,46,0.00,CLR,,0.00,WeatherDisplay:10.37,2013-10-25 19:54:00,
2013-10-25 14:59:00,61.9,40.9,27.19,SE,135,3.5,6.0,46,0.00,CLR,,0.00,WeatherDisplay:10.37,2013-10-25 19:59:00,
2013-10-25 15:04:00,61.9,40.9,27.19,SE,135,6.0,6.0,46,0.00,CLR,,0.00,WeatherDisplay:10.37,2013-10-25 20:04:00,
2013-10-25 15:09:00,62.2,40.6,27.19,South,180,5.8,5.8,45,0.00,CLR,,0.00,WeatherDisplay:10.37,2013-10-25 20:09:00,
2013-10-25 15:14:00,62.4,40.8,27.19,South,180,9.2,9.2,45,0.00,CLR,,0.00,WeatherDisplay:10.37,2013-10-25 20:14:00,
2013-10-25 15:19:00,62.4,40.8,27.19,SE,135,9.2,9.2,45,0.00,CLR,,0.00,WeatherDisplay:10.37,2013-10-25 20:19:00,
2013-10-25 15:24:00,62.2,41.2,27.18,SSW,202,8.1,8.1,46,0.00,CLR,,0.00,WeatherDisplay:10.37,2013-10-25 20:24:00,
2013-10-25 15:29:00,62.2,41.2,27.18,South,180,6.9,6.9,46,0.00,CLR,,0.00,WeatherDisplay:10.37,2013-10-25 20:29:00,
2013-10-25 15:34:00,62.4,41.4,27.18,South,180,5.8,5.8,46,0.00,CLR,,0.00,WeatherDisplay:10.37,2013-10-25 20:34:00,
2013-10-25 15:39:00,62.4,41.4,27.18,SW,225,5.8,5.8,46,0.00,CLR,,0.00,WeatherDisplay:10.37,2013-10-25 20:39:00,
2013-10-25 15:44:00,63.0,41.3,27.17,South,180,8.1,8.1,45,0.00,CLR,,0.00,WeatherDisplay:10.37,2013-10-25 20:44:00,
2013-10-25 15:49:00,63.3,41.6,27.18,South,180,8.1,8.1,45,0.00,CLR,,0.00,WeatherDisplay:10.37,2013-10-25 20:49:00,
2013-10-25 15:54:00,63.3,41.0,27.17,NW,315,8.1,8.1,44,0.00,CLR,,0.00,WeatherDisplay:10.37,2013-10-25 20:54:00,
2013-10-25 15:59:00,63.5,41.2,27.17,SE,135,5.8,5.8,44,0.00,CLR,,0.00,WeatherDisplay:10.37,2013-10-25 20:59:00,
2013-10-25 16:04:00,63.7,41.3,27.17,SW,225,8.1,8.1,44,0.00,CLR,,0.00,WeatherDisplay:10.37,2013-10-25 21:04:00,
2013-10-25 16:09:00,63.9,41.5,27.17,South,180,6.9,6.9,44,0.00,CLR,,0.00,WeatherDisplay:10.37,2013-10-25 21:09:00,
2013-10-25 16:14:00,64.0,41.7,27.17,SW,225,6.9,6.9,44,0.00,CLR,,0.00,WeatherDisplay:10.37,2013-10-25 21:14:00,
2013-10-25 16:19:00,64.2,41.8,27.17,NE,45,8.1,8.1,44,0.00,CLR,,0.00,WeatherDisplay:10.37,2013-10-25 21:19:00,
2013-10-25 16:24:00,64.4,42.6,27.17,South,180,4.6,4.6,45,0.00,CLR,,0.00,WeatherDisplay:10.37,2013-10-25 21:24:00,
2013-10-25 16:29:00,64.6,42.7,27.17,South,180,8.1,8.1,45,0.00,CLR,,0.00,WeatherDisplay:10.37,2013-10-25 21:29:00,
2013-10-25 16:34:00,64.4,42.6,27.16,SE,135,6.9,6.9,45,0.00,CLR,,0.00,WeatherDisplay:10.37,2013-10-25 21:34:00,
2013-10-25 16:39:00,64.4,42.6,27.17,SW,225,8.1,8.1,45,0.00,CLR,,0.00,WeatherDisplay:10.37,2013-10-25 21:39:00,
2013-10-25 16:44:00,64.4,42.6,27.17,South,180,6.9,6.9,45,0.00,CLR,,0.00,WeatherDisplay:10.37,2013-10-25 21:44:00,
2013-10-25 16:49:00,64.2,41.8,27.16,South,180,10.4,10.4,44,0.00,CLR,,0.00,WeatherDisplay:10.37,2013-10-25 21:49:00,
2013-10-25 16:54:00,63.9,41.5,27.16,South,180,8.1,8.1,44,0.00,CLR,,0.00,WeatherDisplay:10.37,2013-10-25 21:54:00,
2013-10-25 16:59:00,63.9,41.5,27.15,SE,135,4.6,4.6,44,0.00,CLR,,0.00,WeatherDisplay:10.37,2013-10-25 21:59:00,
2013-10-25 17:04:00,63.9,41.5,27.16,SE,135,6.9,6.9,44,0.00,CLR,,0.00,WeatherDisplay:10.37,2013-10-25 22:04:00,
2013-10-25 17:09:00,63.9,42.1,27.16,South,180,8.1,8.1,45,0.00,CLR,,0.00,WeatherDisplay:10.37,2013-10-25 22:09:00,
2013-10-25 17:14:00,63.7,41.9,27.16,South,180,4.6,4.6,45,0.00,CLR,,0.00,WeatherDisplay:10.37,2013-10-25 22:14:00,
2013-10-25 17:19:00,63.3,41.6,27.16,South,180,5.8,5.8,45,0.00,CLR,,0.00,WeatherDisplay:10.37,2013-10-25 22:19:00,
2013-10-25 17:24:00,63.1,41.4,27.16,South,180,6.9,6.9,45,0.00,CLR,,0.00,WeatherDisplay:10.37,2013-10-25 22:24:00,
2013-10-25 17:29:00,63.0,41.8,27.16,SW,225,5.8,5.8,46,0.00,CLR,,0.00,WeatherDisplay:10.37,2013-10-25 22:29:00,
2013-10-25 17:34:00,62.8,41.7,27.15,South,180,4.6,4.6,46,0.00,CLR,,0.00,WeatherDisplay:10.37,2013-10-25 22:34:00,
2013-10-25 17:39:00,62.6,41.5,27.15,South,180,8.1,8.1,46,0.00,CLR,,0.00,WeatherDisplay:10.37,2013-10-25 22:39:00,
2013-10-25 17:44:00,62.4,42.5,27.17,South,171,3.0,6.0,48,0.00,CLR,CLR,0.00,WeatherDisplay:10.37,2013-10-25 22:44:00,
2013-10-25 17:49:00,62.2,42.3,27.15,SE,135,3.5,3.5,48,0.00,CLR,,0.00,WeatherDisplay:10.37,2013-10-25 22:49:00,
2013-10-25 17:54:00,62.1,42.1,27.17,SSE,150,2.0,7.0,48,0.00,CLR,CLR,0.00,WeatherDisplay:10.37,2013-10-25 22:54:00,
2013-10-25 17:59:00,61.7,42.3,27.17,SSE,162,1.0,6.0,49,0.00,CLR,CLR,0.00,WeatherDisplay:10.37,2013-10-25 22:59:00,
2013-10-25 18:04:00,61.3,42.5,27.15,South,180,3.5,3.5,50,0.00,CLR,,0.00,WeatherDisplay:10.37,2013-10-25 23:04:00,
2013-10-25 18:09:00,61.0,42.2,27.17,SSE,156,1.0,3.0,50,0.00,CLR,CLR,0.00,WeatherDisplay:10.37,2013-10-25 23:09:00,
2013-10-25 18:14:00,60.6,42.8,27.17,South,182,1.0,6.0,52,0.00,CLR,CLR,0.00,WeatherDisplay:10.37,2013-10-25 23:14:00,
2013-10-25 18:19:00,60.3,42.6,27.15,SE,135,2.3,2.3,52,0.00,CLR,,0.00,WeatherDisplay:10.37,2013-10-25 23:19:00,
2013-10-25 18:24:00,59.9,42.7,27.14,North,0,1.2,0.0,53,0.00,CLR,,0.00,WeatherDisplay:10.37,2013-10-25 23:24:00,
2013-10-25 18:29:00,59.6,42.4,27.17,NNE,27,0.0,3.0,53,0.00,CLR,CLR,0.00,WeatherDisplay:10.37,2013-10-25 23:29:00,
2013-10-25 18:34:00,59.2,42.0,27.14,SSE,158,2.3,2.3,53,0.00,CLR,,0.00,WeatherDisplay:10.37,2013-10-25 23:34:00,
2013-10-25 18:39:00,58.6,42.5,27.17,ESE,118,0.0,2.0,55,0.00,CLR,CLR,0.00,WeatherDisplay:10.37,2013-10-25 23:39:00,
2013-10-25 18:44:00,58.0,41.9,27.17,East,85,0.0,2.0,55,0.00,CLR,CLR,0.00,WeatherDisplay:10.37,2013-10-25 23:44:00,
2013-10-25 18:49:00,57.4,41.8,27.14,East,90,0.0,0.0,56,0.00,CLR,,0.00,WeatherDisplay:10.37,2013-10-25 23:49:00,
2013-10-25 18:54:00,56.8,41.8,27.17,East,90,0.0,0.0,57,0.00,CLR,CLR,0.00,WeatherDisplay:10.37,2013-10-25 23:54:00,
2013-10-25 18:59:00,56.1,41.5,27.15,North,0,0.0,0.0,58,0.00,CLR,,0.00,WeatherDisplay:10.37,2013-10-25 23:59:00,
2013-10-25 19:04:00,56.1,41.5,27.17,North,0,0.0,0.0,58,0.00,CLR,CLR,0.00,WeatherDisplay:10.37,2013-10-26 00:04:00,
2013-10-25 19:09:00,55.0,41.8,27.15,North,0,1.2,1.2,61,0.00,CLR,,0.00,WeatherDisplay:10.37,2013-10-26 00:09:00,
2013-10-25 19:14:00,54.5,41.3,27.16,North,0,1.2,0.0,61,0.00,CLR,,0.00,WeatherDisplay:10.37,2013-10-26 00:14:00,
2013-10-25 19:19:00,54.0,41.2,27.15,North,0,0.0,0.0,62,0.00,CLR,,0.00,WeatherDisplay:10.37,2013-10-26 00:19:00,
2013-10-25 19:24:00,53.6,40.9,27.17,North,0,0.0,2.0,62,0.00,CLR,CLR,0.00,WeatherDisplay:10.37,2013-10-26 00:24:00,
2013-10-25 19:29:00,53.1,41.2,27.17,NW,315,1.2,1.6,64,0.00,CLR,,0.00,WeatherDisplay:10.37,2013-10-26 00:29:00,
2013-10-25 19:34:00,52.7,40.9,27.17,NW,325,0.0,2.0,64,0.00,CLR,CLR,0.00,WeatherDisplay:10.37,2013-10-26 00:34:00,
2013-10-25 19:39:00,52.3,40.9,27.16,SW,225,0.0,0.7,65,0.00,CLR,,0.00,WeatherDisplay:10.37,2013-10-26 00:39:00,
2013-10-25 19:44:00,52.0,40.6,27.17,SE,135,1.2,0.0,65,0.00,CLR,,0.00,WeatherDisplay:10.37,2013-10-26 00:44:00,
2013-10-25 19:49:00,51.8,40.4,27.17,SE,138,0.0,2.0,65,0.00,CLR,CLR,0.00,WeatherDisplay:10.37,2013-10-26 00:49:00,
2013-10-25 19:54:00,51.3,40.3,27.17,SE,135,0.0,1.0,66,0.00,CLR,CLR,0.00,WeatherDisplay:10.37,2013-10-26 00:54:00,
2013-10-25 19:59:00,50.9,39.9,27.17,SE,135,0.0,0.0,66,0.00,CLR,,0.00,WeatherDisplay:10.37,2013-10-26 00:59:00,
2013-10-25 20:04:00,50.5,40.0,27.17,ENE,71,0.0,0.0,67,0.00,CLR,CLR,0.00,WeatherDisplay:10.37,2013-10-26 01:04:00,
2013-10-25 20:09:00,50.4,40.2,27.17,North,0,1.2,0.0,68,0.00,CLR,,0.00,WeatherDisplay:10.37,2013-10-26 01:09:00,
2013-10-25 20:14:00,50.2,40.0,27.17,North,0,0.0,0.0,68,0.00,CLR,,0.00,WeatherDisplay:10.37,2013-10-26 01:14:00,
2013-10-25 20:19:00,49.8,40.1,27.17,North,0,0.0,2.0,69,0.00,CLR,CLR,0.00,WeatherDisplay:10.37,2013-10-26 01:19:00,
2013-10-25 20:24:00,49.5,39.3,27.17,South,180,1.2,0.0,68,0.00,CLR,,0.00,WeatherDisplay:10.37,2013-10-26 01:24:00,
2013-10-25 20:29:00,48.9,38.8,27.17,South,180,2.3,2.3,68,0.00,CLR,,0.00,WeatherDisplay:10.37,2013-10-26 01:29:00,
2013-10-25 20:34:00,48.4,38.7,27.17,South,180,0.0,2.0,69,0.00,CLR,CLR,0.00,WeatherDisplay:10.37,2013-10-26 01:34:00,
2013-10-25 20:39:00,47.8,38.9,27.17,South,180,1.2,0.0,71,0.00,CLR,,0.00,WeatherDisplay:10.37,2013-10-26 01:39:00,
2013-10-25 20:44:00,47.7,39.1,27.18,South,180,0.0,1.0,72,0.00,CLR,CLR,0.00,WeatherDisplay:10.37,2013-10-26 01:44:00,
2013-10-25 20:49:00,47.5,38.9,27.17,South,180,0.0,0.0,72,0.00,CLR,CLR,0.00,WeatherDisplay:10.37,2013-10-26 01:49:00,
2013-10-25 20:54:00,47.3,39.1,27.17,South,180,0.0,0.7,73,0.00,CLR,,0.00,WeatherDisplay:10.37,2013-10-26 01:54:00,
2013-10-25 20:59:00,47.1,38.9,27.18,South,180,0.0,2.0,73,0.00,CLR,CLR,0.00,WeatherDisplay:10.37,2013-10-26 01:59:00,
2013-10-25 21:05:00,47.1,38.9,27.18,South,180,0.0,1.0,73,0.00,CLR,CLR,0.00,WeatherDisplay:10.37,2013-10-26 02:05:00,
2013-10-25 21:10:00,46.4,38.2,27.18,SSE,158,1.2,1.2,73,0.00,CLR,,0.00,WeatherDisplay:10.37,2013-10-26 02:10:00,
2013-10-25 21:15:00,45.9,37.7,27.18,NW,315,0.0,0.0,73,0.00,CLR,,0.00,WeatherDisplay:10.37,2013-10-26 02:15:00,
2013-10-25 21:19:00,45.7,37.5,27.18,NNW,334,0.0,2.0,73,0.00,CLR,CLR,0.00,WeatherDisplay:10.37,2013-10-26 02:19:00,
2013-10-25 21:24:00,45.5,37.7,27.18,South,180,1.2,1.2,74,0.00,CLR,,0.00,WeatherDisplay:10.37,2013-10-26 02:24:00,
2013-10-25 21:29:00,45.3,37.9,27.18,SE,132,0.0,3.0,75,0.00,CLR,CLR,0.00,WeatherDisplay:10.37,2013-10-26 02:29:00,
2013-10-25 21:34:00,45.0,37.5,27.18,NW,315,1.2,0.0,75,0.00,CLR,,0.00,WeatherDisplay:10.37,2013-10-26 02:34:00,
2013-10-25 21:39:00,44.8,37.7,27.18,South,180,1.2,0.0,76,0.00,CLR,,0.00,WeatherDisplay:10.37,2013-10-26 02:39:00,
2013-10-25 21:44:00,44.6,37.8,27.18,South,189,0.0,2.0,77,0.00,CLR,CLR,0.00,WeatherDisplay:10.37,2013-10-26 02:44:00,
2013-10-25 21:49:00,44.6,37.8,27.18,SW,225,2.3,2.3,77,0.00,CLR,,0.00,WeatherDisplay:10.37,2013-10-26 02:49:00,
2013-10-25 21:54:00,44.2,37.5,27.18,SSW,204,1.0,2.0,77,0.00,CLR,CLR,0.00,WeatherDisplay:10.37,2013-10-26 02:54:00,
2013-10-25 21:59:00,43.7,37.0,27.18,NW,309,0.0,1.0,77,0.00,CLR,CLR,0.00,WeatherDisplay:10.37,2013-10-26 02:59:00,
2013-10-25 22:04:00,43.5,36.8,27.19,East,90,1.2,1.2,77,0.00,CLR,,0.00,WeatherDisplay:10.37,2013-10-26 03:04:00,
2013-10-25 22:09:00,43.2,36.4,27.19,NW,315,1.2,1.2,77,0.00,CLR,,0.00,WeatherDisplay:10.37,2013-10-26 03:09:00,
2013-10-25 22:14:00,42.8,36.4,27.19,NW,315,1.2,0.0,78,0.00,CLR,,0.00,WeatherDisplay:10.37,2013-10-26 03:14:00,
2013-10-25 22:19:00,42.8,36.4,27.19,North,0,0.0,0.0,78,0.00,CLR,,0.00,WeatherDisplay:10.37,2013-10-26 03:19:00,
2013-10-25 22:24:00,42.6,36.9,27.19,North,0,0.0,0.0,80,0.00,CLR,,0.00,WeatherDisplay:10.37,2013-10-26 03:24:00,
2013-10-25 22:29:00,42.4,36.7,27.19,SW,225,0.0,0.0,80,0.00,CLR,,0.00,WeatherDisplay:10.37,2013-10-26 03:29:00,
2013-10-25 22:34:00,42.3,36.5,27.19,North,0,0.0,0.0,80,0.00,CLR,,0.00,WeatherDisplay:10.37,2013-10-26 03:34:00,
2013-10-25 22:39:00,42.0,36.2,27.19,NNW,344,0.0,2.0,80,0.00,CLR,CLR,0.00,WeatherDisplay:10.37,2013-10-26 03:39:00,
2013-10-25 22:44:00,41.7,36.3,27.19,NW,315,0.0,0.0,81,0.00,CLR,,0.00,WeatherDisplay:10.37,2013-10-26 03:44:00,
2013-10-25 22:49:00,41.7,36.3,27.19,NW,315,0.0,0.0,81,0.00,CLR,CLR,0.00,WeatherDisplay:10.37,2013-10-26 03:49:00,
2013-10-25 22:54:00,41.5,36.1,27.19,NW,315,0.0,1.0,81,0.00,CLR,CLR,0.00,WeatherDisplay:10.37,2013-10-26 03:54:00,
2013-10-25 22:59:00,41.4,36.0,27.20,NW,315,0.0,0.0,81,0.00,CLR,,0.00,WeatherDisplay:10.37,2013-10-26 03:59:00,
2013-10-25 23:01:00,41.4,36.0,27.20,NW,315,0.0,0.0,81,0.00,CLR,,0.00,WeatherDisplay:10.37,2013-10-26 04:01:00,
2013-10-25 23:02:00,41.4,36.0,27.20,NW,315,0.0,0.0,81,0.00,CLR,,0.00,WeatherDisplay:10.37,2013-10-26 04:02:00,
2013-10-25 23:07:00,41.4,36.0,27.20,NW,315,0.0,0.0,81,0.00,CLR,,0.00,WeatherDisplay:10.37,2013-10-26 04:07:00,
2013-10-25 23:12:00,41.0,35.6,27.20,SE,135,1.2,0.0,81,0.00,CLR,,0.00,WeatherDisplay:10.37,2013-10-26 04:12:00,
2013-10-25 23:17:00,40.8,35.7,27.20,SE,135,0.0,0.0,82,0.00,CLR,,0.00,WeatherDisplay:10.37,2013-10-26 04:17:00,
2013-10-25 23:22:00,40.6,35.9,27.20,North,0,0.0,0.0,83,0.00,CLR,,0.00,WeatherDisplay:10.37,2013-10-26 04:22:00,
2013-10-25 23:27:00,40.5,35.7,27.19,North,0,1.2,0.0,83,0.00,CLR,,0.00,WeatherDisplay:10.37,2013-10-26 04:27:00,
2013-10-25 23:32:00,40.1,35.4,27.19,NW,315,1.2,1.2,83,0.00,CLR,,0.00,WeatherDisplay:10.37,2013-10-26 04:32:00,
2013-10-25 23:37:00,39.7,35.3,27.20,NW,315,1.2,1.2,84,0.00,CLR,,0.00,WeatherDisplay:10.37,2013-10-26 04:37:00,
2013-10-25 23:42:00,39.6,35.4,27.19,NW,315,1.2,1.6,85,0.00,CLR,,0.00,WeatherDisplay:10.37,2013-10-26 04:42:00,
2013-10-25 23:47:00,39.4,35.5,27.20,NW,315,1.2,1.2,86,0.00,CLR,,0.00,WeatherDisplay:10.37,2013-10-26 04:47:00,
2013-10-25 23:52:00,39.2,35.4,27.20,NW,315,1.2,1.2,86,0.00,CLR,,0.00,WeatherDisplay:10.37,2013-10-26 04:52:00,
2013-10-25 23:57:00,39.0,35.8,27.19,NW,315,2.3,2.3,88,0.00,CLR,,0.00,WeatherDisplay:10.37,2013-10-26 04:57:00,